Time,TemperatureF,DewpointF,PressureIn,WindDirection,WindDirectionDegrees,WindSpeedMPH,WindSpeedGustMPH,Humidity,HourlyPrecipIn,Conditions,Clouds,dailyrainin,SoftwareType,DateUTC
2013-04-30 00:00:00,59.9,25.9,29.46,NNE,22,0.0,1.0,27,0.00,,SKC,0.00,VWS V12.07,2013-04-30 06:00:00,
2013-04-30 00:30:00,56.7,31.4,29.49,ESE,109,0.0,4.0,38,0.00,,SKC,0.00,VWS V12.07,2013-04-30 06:30:00,
2013-04-30 01:00:00,55.1,31.2,29.51,NNE,15,0.0,4.0,40,0.00,,SKC,0.00,VWS V12.07,2013-04-30 07:00:00,
2013-04-30 01:30:00,53.1,32.3,29.51,NNE,24,0.0,0.0,45,0.00,,SKC,0.00,VWS V12.07,2013-04-30 07:30:00,
2013-04-30 02:00:00,51.3,31.8,29.53,ENE,78,0.0,2.0,47,0.00,,SKC,0.00,VWS V12.07,2013-04-30 08:00:00,
2013-04-30 02:30:00,50.8,30.2,29.51,ENE,61,0.0,0.0,45,0.00,,SKC,0.00,VWS V12.07,2013-04-30 08:30:00,
2013-04-30 03:00:00,51.0,28.7,29.51,East,96,0.0,2.0,42,0.00,,SKC,0.00,VWS V12.07,2013-04-30 09:00:00,
2013-04-30 03:30:00,49.9,28.9,29.51,ESE,113,0.0,0.0,44,0.00,,SKC,0.00,VWS V12.07,2013-04-30 09:30:00,
2013-04-30 04:00:00,47.0,28.3,29.53,ESE,117,0.0,0.0,48,0.00,,SKC,0.00,VWS V12.07,2013-04-30 10:00:00,
2013-04-30 04:30:00,47.0,29.3,29.53,ESE,117,0.0,0.0,50,0.00,,SKC,0.00,VWS V12.07,2013-04-30 10:30:00,
2013-04-30 05:00:00,44.9,28.8,29.56,ESE,117,0.0,0.0,53,0.00,,SKC,0.00,VWS V12.07,2013-04-30 11:00:00,
2013-04-30 05:30:00,44.6,28.5,29.55,ESE,117,0.0,0.0,53,0.00,,SKC,0.00,VWS V12.07,2013-04-30 11:30:00,
2013-04-30 06:00:00,44.9,26.9,29.55,ESE,117,0.0,0.0,49,0.00,,SKC,0.00,VWS V12.07,2013-04-30 12:00:00,
2013-04-30 06:30:00,44.3,26.4,29.56,ESE,117,0.0,0.0,49,0.00,,SKC,0.00,VWS V12.07,2013-04-30 12:30:00,
2013-04-30 07:00:00,44.3,26.9,29.56,ESE,117,0.0,1.0,50,0.00,,SKC,0.00,VWS V12.07,2013-04-30 13:00:00,
2013-04-30 07:30:00,46.4,24.6,29.59,SW,219,0.0,1.0,42,0.00,,SKC,0.00,VWS V12.07,2013-04-30 13:30:00,
2013-04-30 08:00:00,48.5,24.1,29.59,South,186,0.0,1.0,38,0.00,,SKC,0.00,VWS V12.07,2013-04-30 14:00:00,
2013-04-30 08:30:00,49.8,24.6,29.59,NNE,26,0.0,3.0,37,0.00,,SKC,0.00,VWS V12.07,2013-04-30 14:30:00,
2013-04-30 09:00:00,49.4,26.7,29.62,ESE,117,2.0,7.0,41,0.00,,SKC,0.00,VWS V12.07,2013-04-30 15:00:00,
2013-04-30 09:30:00,50.8,24.8,29.61,ENE,66,0.0,5.0,36,0.00,,SKC,0.00,VWS V12.07,2013-04-30 15:30:00,
2013-04-30 10:00:00,49.4,22.9,29.64,ENE,69,0.0,7.0,35,0.00,,SKC,0.00,VWS V12.07,2013-04-30 16:00:00,
2013-04-30 10:30:00,51.0,22.9,29.62,NE,42,0.0,6.0,33,0.00,,SKC,0.00,VWS V12.07,2013-04-30 16:30:00,
2013-04-30 11:00:00,52.3,24.1,29.61,SE,126,2.0,6.0,33,0.00,,SKC,0.00,VWS V12.07,2013-04-30 17:00:00,
2013-04-30 11:30:00,52.8,23.0,29.60,SE,127,3.0,8.0,31,0.00,,SKC,0.00,VWS V12.07,2013-04-30 17:30:00,
2013-04-30 12:00:00,52.9,21.5,29.60,NE,41,0.0,9.0,29,0.00,,SKC,0.00,VWS V12.07,2013-04-30 18:00:00,
2013-04-30 12:30:00,54.4,24.4,29.62,NE,55,2.0,8.0,31,0.00,,SKC,0.00,VWS V12.07,2013-04-30 18:30:00,
2013-04-30 13:00:00,54.5,24.5,29.61,ENE,71,0.0,11.0,31,0.00,,SKC,0.00,VWS V12.07,2013-04-30 19:00:00,
2013-04-30 13:30:00,55.1,22.6,29.65,North,351,4.0,10.0,28,0.00,,SKC,0.00,VWS V12.07,2013-04-30 19:30:00,
2013-04-30 14:00:00,54.8,22.3,29.65,East,92,0.0,11.0,28,0.00,,SKC,0.00,VWS V12.07,2013-04-30 20:00:00,
2013-04-30 14:30:00,57.3,22.7,29.63,NNE,32,3.0,10.0,26,0.00,,SKC,0.00,VWS V12.07,2013-04-30 20:30:00,
2013-04-30 15:00:00,56.7,22.2,29.62,NNE,28,0.0,10.0,26,0.00,,SKC,0.00,VWS V12.07,2013-04-30 21:00:00,
2013-04-30 15:30:00,55.1,19.9,29.67,ENE,77,6.0,11.0,25,0.00,,SKC,0.00,VWS V12.07,2013-04-30 21:30:00,
2013-04-30 16:01:00,53.9,19.8,29.69,East,100,3.0,11.0,26,0.00,,SKC,0.00,VWS V12.07,2013-04-30 22:01:00,
2013-04-30 16:30:00,54.2,17.2,29.70,ENE,61,10.0,14.0,23,0.00,,SKC,0.00,VWS V12.07,2013-04-30 22:30:00,
2013-04-30 17:00:00,54.5,16.5,29.69,ENE,66,0.0,14.0,22,0.00,,SKC,0.00,VWS V12.07,2013-04-30 23:00:00,
2013-04-30 17:30:00,53.8,14.8,29.71,ENE,61,5.0,11.0,21,0.00,,SKC,0.00,VWS V12.07,2013-04-30 23:30:00,
2013-04-30 18:01:00,52.6,11.5,29.73,East,99,4.0,14.0,19,0.00,,SKC,0.00,VWS V12.07,2013-05-01 00:01:00,
2013-04-30 18:30:00,52.2,11.2,29.74,NE,55,6.0,10.0,19,0.00,,SKC,0.00,VWS V12.07,2013-05-01 00:30:00,
2013-04-30 19:01:00,50.7,6.2,29.75,ESE,109,4.0,11.0,16,0.00,,SKC,0.00,VWS V12.07,2013-05-01 01:01:00,
2013-04-30 19:30:00,49.2,7.5,29.75,East,80,7.0,13.0,18,0.00,,SKC,0.00,VWS V12.07,2013-05-01 01:30:00,
2013-04-30 20:00:00,47.4,7.2,29.76,ESE,111,0.0,13.0,19,0.00,,SKC,0.00,VWS V12.07,2013-05-01 02:00:00,
2013-04-30 20:30:00,45.1,6.4,29.79,West,265,0.0,1.0,20,0.00,,SKC,0.00,VWS V12.07,2013-05-01 02:30:00,
2013-04-30 21:00:00,43.1,11.4,29.82,NNW,332,0.0,1.0,27,0.00,,SKC,0.00,VWS V12.07,2013-05-01 03:00:00,
2013-04-30 21:30:00,42.2,10.6,29.85,NNE,33,0.0,0.0,27,0.00,,SKC,0.00,VWS V12.07,2013-05-01 03:30:00,
2013-04-30 22:00:00,42.2,11.4,29.88,NW,311,0.0,1.0,28,0.00,,SKC,0.00,VWS V12.07,2013-05-01 04:00:00,
2013-04-30 22:30:00,41.3,10.7,29.90,ENE,75,0.0,1.0,28,0.00,,SKC,0.00,VWS V12.07,2013-05-01 04:30:00,
2013-04-30 23:00:00,40.5,8.3,29.93,East,94,0.0,6.0,26,0.00,,SKC,0.00,VWS V12.07,2013-05-01 05:00:00,
2013-04-30 23:30:00,39.2,8.9,29.93,North,360,0.0,4.0,28,0.00,,SKC,0.00,VWS V12.07,2013-05-01 05:30:00,